createdAt,value
2018-10-03T00:00:35.697Z,11.10
2018-10-03T00:03:04.580Z,11.20
2018-10-03T00:05:33.531Z,11.20
2018-10-03T00:08:03.471Z,11.20
2018-10-03T00:10:32.440Z,11.20
2018-10-03T00:13:01.294Z,11.20
2018-10-03T00:15:32.437Z,11.20
2018-10-03T00:18:02.950Z,11.20
2018-10-03T00:20:32.314Z,11.20
2018-10-03T00:23:04.469Z,11.20
2018-10-03T00:25:34.359Z,11.20
2018-10-03T00:28:03.260Z,11.20
2018-10-03T00:30:32.239Z,11.20
2018-10-03T00:33:01.075Z,11.30
2018-10-03T00:35:30.448Z,11.30
2018-10-03T00:38:00.590Z,11.20
2018-10-03T00:40:29.704Z,11.30
2018-10-03T00:42:58.547Z,11.20
2018-10-03T00:45:27.892Z,11.20
2018-10-03T00:47:56.791Z,11.20
2018-10-03T00:50:25.661Z,11.30
2018-10-03T00:52:54.583Z,11.30
2018-10-03T00:55:23.481Z,11.30
2018-10-03T00:57:52.695Z,11.30
2018-10-03T01:00:21.565Z,11.40
2018-10-03T01:02:50.507Z,11.40
2018-10-03T01:05:21.041Z,11.40
2018-10-03T01:07:50.620Z,11.40
2018-10-03T01:10:20.082Z,11.30
2018-10-03T01:12:49.198Z,11.40
2018-10-03T01:15:18.201Z,11.30
2018-10-03T01:17:48.311Z,11.40
2018-10-03T01:20:17.455Z,11.40
2018-10-03T01:22:47.788Z,11.40
2018-10-03T01:25:16.696Z,11.30
2018-10-03T01:27:45.525Z,11.40
2018-10-03T01:30:15.752Z,11.40
2018-10-03T01:32:44.728Z,11.40
2018-10-03T01:35:13.787Z,11.40
2018-10-03T01:37:43.308Z,11.40
2018-10-03T01:40:12.677Z,11.40
2018-10-03T01:42:41.824Z,11.40
2018-10-03T01:45:10.851Z,11.50
2018-10-03T01:47:40.527Z,11.50
2018-10-03T01:50:10.454Z,11.50
2018-10-03T01:52:39.697Z,11.50
2018-10-03T01:55:09.198Z,11.50
2018-10-03T01:57:37.995Z,11.50
2018-10-03T02:00:08.377Z,11.50
2018-10-03T02:02:37.679Z,11.60
2018-10-03T02:05:06.513Z,11.60
2018-10-03T02:07:35.632Z,11.50
2018-10-03T02:10:05.395Z,11.50
2018-10-03T02:12:34.203Z,11.60
2018-10-03T02:15:03.740Z,11.60
2018-10-03T02:17:32.703Z,11.60
2018-10-03T02:20:01.645Z,11.60
2018-10-03T02:22:30.523Z,11.60
2018-10-03T02:24:59.979Z,11.60
2018-10-03T02:27:28.876Z,11.60
2018-10-03T02:29:59.179Z,11.60
2018-10-03T02:32:29.150Z,11.60
2018-10-03T02:34:58.162Z,11.60
2018-10-03T02:37:27.020Z,11.60
2018-10-03T02:39:56.052Z,11.60
2018-10-03T02:42:25.527Z,11.50
2018-10-03T02:44:54.447Z,11.60
2018-10-03T02:47:23.323Z,11.60
2018-10-03T02:49:53.314Z,11.60
2018-10-03T02:52:22.208Z,11.60
2018-10-03T02:54:51.029Z,11.60
2018-10-03T02:57:22.496Z,11.50
2018-10-03T02:59:52.275Z,11.60
2018-10-03T03:02:21.198Z,11.60
2018-10-03T03:04:50.518Z,11.60
2018-10-03T03:07:19.330Z,11.60
2018-10-03T03:09:48.269Z,11.60
2018-10-03T03:12:17.251Z,11.60
2018-10-03T03:14:46.191Z,11.50
2018-10-03T03:17:15.030Z,11.50
2018-10-03T03:19:44.031Z,11.50
2018-10-03T03:22:12.916Z,11.50
2018-10-03T03:24:41.789Z,11.50
2018-10-03T03:27:10.792Z,11.50
2018-10-03T03:29:39.679Z,11.50
2018-10-03T03:32:08.700Z,11.50
2018-10-03T03:34:37.635Z,11.50
2018-10-03T03:37:07.052Z,11.50
2018-10-03T03:39:35.873Z,11.50
2018-10-03T03:42:05.622Z,11.50
2018-10-03T03:44:35.132Z,11.50
2018-10-03T03:47:04.441Z,11.50
2018-10-03T03:49:33.407Z,11.50
2018-10-03T03:52:02.605Z,11.60
2018-10-03T03:54:31.523Z,11.60
2018-10-03T03:57:00.359Z,11.60
2018-10-03T03:59:29.560Z,11.50
2018-10-03T04:01:59.213Z,11.60
2018-10-03T04:04:28.139Z,11.60
2018-10-03T04:06:57.016Z,11.60
2018-10-03T04:09:27.084Z,11.60
2018-10-03T04:11:55.903Z,11.60
2018-10-03T04:14:24.837Z,11.60
2018-10-03T04:16:53.684Z,11.60
2018-10-03T04:19:22.684Z,11.60
2018-10-03T04:21:51.496Z,11.60
2018-10-03T04:24:21.318Z,11.60
2018-10-03T04:26:51.473Z,11.60
2018-10-03T04:29:19.892Z,11.60
2018-10-03T04:31:48.160Z,11.70
2018-10-03T04:34:16.559Z,11.60
2018-10-03T04:36:44.833Z,11.60
2018-10-03T04:39:13.737Z,11.70
2018-10-03T04:41:42.078Z,11.60
2018-10-03T04:44:10.432Z,11.60
2018-10-03T04:46:38.796Z,11.60
2018-10-03T04:49:07.312Z,11.60
2018-10-03T04:51:36.585Z,11.60
2018-10-03T04:54:04.940Z,11.50
2018-10-03T04:56:34.288Z,11.50
2018-10-03T04:59:02.776Z,11.50
2018-10-03T05:01:31.478Z,11.50
2018-10-03T05:03:59.921Z,11.60
2018-10-03T05:06:28.415Z,11.60
2018-10-03T05:08:56.747Z,11.60
2018-10-03T05:11:25.152Z,11.60
2018-10-03T05:13:53.620Z,11.60
2018-10-03T05:16:21.989Z,11.60
2018-10-03T05:18:50.381Z,11.60
2018-10-03T05:21:19.005Z,11.60
2018-10-03T05:23:47.886Z,11.60
2018-10-03T05:26:16.256Z,11.60
2018-10-03T05:28:44.748Z,11.60
2018-10-03T05:31:13.142Z,11.50
2018-10-03T05:33:42.581Z,11.50
2018-10-03T05:36:12.043Z,11.50
2018-10-03T05:38:40.408Z,11.50
2018-10-03T05:41:10.026Z,11.50
2018-10-03T05:43:40.981Z,11.40
2018-10-03T05:46:09.456Z,11.40
2018-10-03T05:48:37.967Z,11.40
2018-10-03T05:51:06.320Z,11.40
2018-10-03T05:53:34.821Z,11.40
2018-10-03T05:56:03.119Z,11.40
2018-10-03T05:58:31.568Z,11.40
2018-10-03T06:01:01.075Z,11.50
2018-10-03T06:03:32.590Z,11.50
2018-10-03T06:06:05.533Z,11.40
2018-10-03T06:08:34.870Z,11.50
2018-10-03T06:11:05.821Z,11.50
2018-10-03T06:13:35.269Z,11.50
2018-10-03T06:16:03.924Z,11.40
2018-10-03T06:18:32.424Z,11.50
2018-10-03T06:21:01.246Z,11.50
2018-10-03T06:23:31.666Z,11.50
2018-10-03T06:26:00.053Z,11.50
2018-10-03T06:28:28.452Z,11.60
2018-10-03T06:30:56.764Z,11.50
2018-10-03T06:33:25.279Z,11.60
2018-10-03T06:35:53.684Z,11.60
2018-10-03T06:38:22.082Z,11.60
2018-10-03T06:40:50.393Z,11.70
2018-10-03T06:43:18.714Z,11.70
2018-10-03T06:45:47.253Z,11.70
2018-10-03T06:48:15.555Z,11.70
2018-10-03T06:50:43.947Z,11.70
2018-10-03T06:53:12.428Z,11.70
2018-10-03T06:55:41.045Z,11.70
2018-10-03T06:58:09.371Z,11.60
2018-10-03T07:00:38.030Z,11.70
2018-10-03T07:03:15.479Z,11.70
2018-10-03T07:05:43.826Z,11.70
2018-10-03T07:08:12.411Z,11.70
2018-10-03T07:10:42.049Z,11.70
2018-10-03T07:13:11.260Z,11.70
2018-10-03T07:15:39.848Z,11.70
2018-10-03T07:18:08.212Z,11.70
2018-10-03T07:20:36.688Z,11.70
2018-10-03T07:23:08.847Z,11.70
2018-10-03T07:25:38.452Z,11.80
2018-10-03T07:28:07.523Z,11.80
2018-10-03T07:30:35.866Z,11.80
2018-10-03T07:33:05.400Z,11.80
2018-10-03T07:35:33.740Z,11.80
2018-10-03T07:38:03.148Z,11.80
2018-10-03T07:40:41.098Z,11.80
2018-10-03T07:43:09.489Z,11.80
2018-10-03T07:45:46.357Z,11.80
2018-10-03T07:48:14.733Z,11.80
2018-10-03T07:50:43.020Z,11.70
2018-10-03T07:53:12.428Z,11.80
2018-10-03T07:55:40.756Z,11.80
2018-10-03T07:58:10.303Z,11.80
2018-10-03T08:00:38.710Z,11.80
2018-10-03T08:03:13.032Z,11.70
2018-10-03T08:05:41.411Z,11.70
2018-10-03T08:08:09.895Z,11.80
2018-10-03T08:10:39.222Z,11.80
2018-10-03T08:13:08.911Z,11.80
2018-10-03T08:15:37.992Z,11.90
2018-10-03T08:18:08.194Z,11.80
2018-10-03T08:20:38.255Z,11.80
2018-10-03T08:23:07.247Z,11.80
2018-10-03T08:25:36.099Z,11.80
2018-10-03T08:28:04.992Z,11.80
2018-10-03T08:30:33.816Z,11.80
2018-10-03T08:33:02.777Z,11.90
2018-10-03T08:35:31.545Z,11.90
2018-10-03T08:38:00.517Z,11.90
2018-10-03T08:40:29.537Z,12.00
2018-10-03T08:42:58.348Z,12.10
2018-10-03T08:45:27.225Z,12.10
2018-10-03T08:47:55.960Z,12.20
2018-10-03T08:50:24.763Z,12.20
2018-10-03T08:52:53.713Z,12.20
2018-10-03T08:55:22.506Z,12.30
2018-10-03T08:57:51.337Z,12.30
2018-10-03T09:00:20.124Z,12.40
2018-10-03T09:02:49.040Z,12.50
2018-10-03T09:05:17.869Z,12.50
2018-10-03T09:07:46.692Z,12.60
2018-10-03T09:10:15.580Z,12.70
2018-10-03T09:12:44.488Z,12.80
2018-10-03T09:15:13.380Z,12.80
2018-10-03T09:17:42.721Z,12.90
2018-10-03T09:20:11.526Z,12.90
2018-10-03T09:22:40.354Z,13.00
2018-10-03T09:25:09.149Z,13.10
2018-10-03T09:27:38.037Z,13.10
2018-10-03T09:30:06.864Z,13.20
2018-10-03T09:32:35.689Z,13.20
2018-10-03T09:35:16.188Z,13.30
2018-10-03T09:37:45.059Z,13.40
2018-10-03T09:40:13.870Z,13.40
2018-10-03T09:42:43.131Z,13.40
2018-10-03T09:45:12.317Z,13.40
2018-10-03T09:47:41.527Z,13.40
2018-10-03T09:50:10.854Z,13.50
2018-10-03T09:52:40.845Z,13.50
2018-10-03T09:55:09.715Z,13.60
2018-10-03T09:57:38.565Z,13.60
2018-10-03T10:00:07.636Z,13.60
2018-10-03T10:02:37.020Z,13.60
2018-10-03T10:05:05.956Z,13.70
2018-10-03T10:07:34.876Z,13.70
2018-10-03T10:10:03.661Z,13.80
2018-10-03T10:12:32.533Z,13.80
2018-10-03T10:15:02.570Z,13.90
2018-10-03T10:17:32.208Z,13.80
2018-10-03T10:20:02.065Z,13.90
2018-10-03T10:22:30.871Z,13.90
2018-10-03T10:24:59.732Z,14.00
2018-10-03T10:27:28.610Z,14.00
2018-10-03T10:29:57.520Z,14.10
2018-10-03T10:32:27.122Z,14.10
2018-10-03T10:34:55.766Z,14.20
2018-10-03T10:37:24.684Z,14.20
2018-10-03T10:39:53.521Z,14.30
2018-10-03T10:42:22.401Z,14.30
2018-10-03T10:44:51.230Z,14.40
2018-10-03T10:47:20.227Z,14.50
2018-10-03T10:49:49.107Z,14.50
2018-10-03T10:52:17.920Z,14.60
2018-10-03T10:54:46.727Z,14.70
2018-10-03T10:57:15.575Z,14.70
2018-10-03T10:59:44.432Z,14.70
2018-10-03T11:02:13.356Z,14.80
2018-10-03T11:04:42.156Z,15.00
2018-10-03T11:07:10.996Z,15.10
2018-10-03T11:09:39.809Z,15.20
2018-10-03T11:12:08.620Z,15.30
2018-10-03T11:14:37.431Z,15.40
2018-10-03T11:17:06.565Z,15.40
2018-10-03T11:19:35.480Z,15.60
2018-10-03T11:22:04.332Z,15.60
2018-10-03T11:24:34.596Z,15.60
2018-10-03T11:27:03.019Z,15.70
2018-10-03T11:29:31.831Z,15.80
2018-10-03T11:32:00.658Z,15.80
2018-10-03T11:34:29.600Z,15.80
2018-10-03T11:36:58.403Z,15.80
2018-10-03T11:39:28.280Z,15.70
2018-10-03T11:41:57.095Z,15.60
2018-10-03T11:44:25.912Z,15.70
2018-10-03T11:46:54.852Z,15.70
2018-10-03T11:49:23.655Z,15.60
2018-10-03T11:51:52.488Z,15.50
2018-10-03T11:54:21.328Z,15.50
2018-10-03T11:56:50.471Z,15.50
2018-10-03T11:59:19.312Z,15.50
2018-10-03T12:01:48.097Z,15.40
2018-10-03T12:04:16.889Z,15.50
2018-10-03T12:06:45.770Z,15.50
2018-10-03T12:09:14.880Z,15.70
2018-10-03T12:11:43.665Z,15.70
2018-10-03T12:14:13.687Z,15.70
2018-10-03T12:16:42.869Z,15.60
2018-10-03T12:19:11.658Z,15.60
2018-10-03T12:21:40.445Z,15.60
2018-10-03T12:24:10.615Z,15.60
2018-10-03T12:26:39.473Z,15.60
2018-10-03T12:29:08.339Z,15.60
2018-10-03T12:31:37.550Z,15.60
2018-10-03T12:34:06.580Z,15.60
2018-10-03T12:36:35.452Z,15.50
2018-10-03T12:39:06.062Z,15.50
2018-10-03T12:41:34.888Z,15.50
2018-10-03T12:44:04.743Z,15.50
2018-10-03T12:46:33.687Z,15.40
2018-10-03T12:49:02.480Z,15.50
2018-10-03T12:51:31.292Z,15.40
2018-10-03T12:54:01.104Z,15.40
2018-10-03T12:56:30.055Z,15.40
2018-10-03T12:58:58.899Z,15.40
2018-10-03T13:01:27.712Z,15.40
2018-10-03T13:03:56.517Z,15.40
2018-10-03T13:06:25.305Z,15.50
2018-10-03T13:08:54.111Z,15.50
2018-10-03T13:11:22.942Z,15.50
2018-10-03T13:13:52.855Z,15.50
2018-10-03T13:16:21.606Z,15.50
2018-10-03T13:19:06.796Z,15.50
2018-10-03T13:21:36.343Z,15.50
2018-10-03T13:24:05.162Z,15.60
2018-10-03T13:26:34.055Z,15.70
2018-10-03T13:29:03.075Z,15.80
2018-10-03T13:31:31.911Z,15.80
2018-10-03T13:34:00.829Z,15.90
2018-10-03T13:36:29.679Z,15.90
2018-10-03T13:38:58.529Z,15.70
2018-10-03T13:41:27.387Z,15.70
2018-10-03T13:43:56.210Z,15.50
2018-10-03T13:46:25.352Z,15.50
2018-10-03T13:48:54.145Z,15.50
2018-10-03T13:51:22.939Z,15.40
2018-10-03T13:53:51.826Z,15.40
2018-10-03T13:56:20.626Z,15.40
2018-10-03T13:58:49.439Z,15.40
2018-10-03T14:01:18.288Z,15.50
2018-10-03T14:03:47.091Z,15.60
2018-10-03T14:06:15.899Z,15.50
2018-10-03T14:08:44.701Z,15.60
2018-10-03T14:11:13.620Z,15.70
2018-10-03T14:13:42.376Z,15.70
2018-10-03T14:16:11.172Z,15.60
2018-10-03T14:18:40.060Z,15.60
2018-10-03T14:21:08.795Z,15.60
2018-10-03T14:23:37.648Z,15.60
2018-10-03T14:26:06.456Z,15.50
2018-10-03T14:28:36.760Z,15.40
2018-10-03T14:31:06.474Z,15.40
2018-10-03T14:33:35.520Z,15.40
2018-10-03T14:36:05.135Z,15.40
2018-10-03T14:38:34.516Z,15.40
2018-10-03T14:41:03.410Z,15.40
2018-10-03T14:43:32.558Z,15.30
2018-10-03T14:46:01.677Z,15.30
2018-10-03T14:48:30.451Z,15.30
2018-10-03T14:50:59.237Z,15.30
2018-10-03T14:53:28.052Z,15.30
2018-10-03T14:55:56.919Z,15.30
2018-10-03T14:58:25.873Z,15.30
2018-10-03T15:00:54.690Z,15.30
2018-10-03T15:03:23.608Z,15.30
2018-10-03T15:05:53.381Z,15.30
2018-10-03T15:08:23.212Z,15.30
2018-10-03T15:10:52.034Z,15.30
2018-10-03T15:13:20.844Z,15.40
2018-10-03T15:15:49.688Z,15.40
2018-10-03T15:18:18.572Z,15.50
2018-10-03T15:20:47.356Z,15.50
2018-10-03T15:23:16.160Z,15.50
2018-10-03T15:25:45.078Z,15.50
2018-10-03T15:28:13.879Z,15.50
2018-10-03T15:30:42.688Z,15.50
2018-10-03T15:33:11.542Z,15.40
2018-10-03T15:35:40.469Z,15.40
2018-10-03T15:38:09.284Z,15.40
2018-10-03T15:40:38.256Z,15.30
2018-10-03T15:43:07.248Z,15.30
2018-10-03T15:45:36.145Z,15.30
2018-10-03T15:48:06.077Z,15.20
2018-10-03T15:50:34.900Z,15.10
2018-10-03T15:53:03.683Z,15.10
2018-10-03T15:55:32.484Z,15.10
2018-10-03T15:58:02.380Z,15.00
2018-10-03T16:00:33.092Z,15.00
2018-10-03T16:03:01.928Z,15.00
2018-10-03T16:05:30.801Z,15.00
2018-10-03T16:07:59.577Z,15.00
2018-10-03T16:10:28.359Z,15.00
2018-10-03T16:12:57.189Z,15.00
2018-10-03T16:15:25.977Z,15.00
2018-10-03T16:17:54.807Z,14.90
2018-10-03T16:20:23.675Z,14.90
2018-10-03T16:22:52.510Z,14.90
2018-10-03T16:25:21.315Z,14.90
2018-10-03T16:27:50.145Z,14.80
2018-10-03T16:30:18.929Z,14.80
2018-10-03T16:32:47.744Z,14.80
2018-10-03T16:35:17.384Z,14.80
2018-10-03T16:37:46.224Z,14.80
2018-10-03T16:40:15.024Z,14.80
2018-10-03T16:42:43.833Z,14.80
2018-10-03T16:45:12.647Z,14.70
2018-10-03T16:47:41.468Z,14.70
2018-10-03T16:50:10.366Z,14.60
2018-10-03T16:52:39.203Z,14.60
2018-10-03T16:55:08.048Z,14.50
2018-10-03T16:57:36.839Z,14.50
2018-10-03T17:00:05.730Z,14.50
2018-10-03T17:02:34.553Z,14.40
2018-10-03T17:05:03.400Z,14.30
2018-10-03T17:07:32.212Z,14.30
2018-10-03T17:10:01.879Z,14.30
2018-10-03T17:12:30.704Z,14.20
2018-10-03T17:14:59.661Z,14.20
2018-10-03T17:17:28.534Z,14.20
2018-10-03T17:19:57.371Z,14.20
2018-10-03T17:22:26.177Z,14.20
2018-10-03T17:24:55.023Z,14.10
2018-10-03T17:27:23.855Z,14.00
2018-10-03T17:29:52.648Z,13.90
2018-10-03T17:32:21.464Z,13.90
2018-10-03T17:34:50.384Z,13.80
2018-10-03T17:37:19.223Z,13.70
2018-10-03T17:39:48.016Z,13.70
2018-10-03T17:42:17.111Z,13.60
2018-10-03T17:44:45.925Z,13.50
2018-10-03T17:47:14.700Z,13.40
2018-10-03T17:49:43.516Z,13.40
2018-10-03T17:52:12.355Z,13.30
2018-10-03T17:54:41.168Z,13.20
2018-10-03T17:57:09.980Z,13.20
2018-10-03T17:59:38.981Z,13.20
2018-10-03T18:02:09.959Z,13.10
2018-10-03T18:04:48.560Z,13.10
2018-10-03T18:07:22.190Z,13.00
2018-10-03T18:09:55.836Z,13.00
2018-10-03T18:12:28.527Z,12.90
2018-10-03T18:14:57.888Z,12.90
2018-10-03T18:17:28.328Z,12.90
2018-10-03T18:19:57.242Z,12.80
2018-10-03T18:22:26.173Z,12.70
2018-10-03T18:24:56.264Z,12.60
2018-10-03T18:27:25.113Z,12.50
2018-10-03T18:29:57.035Z,12.50
2018-10-03T18:32:26.555Z,12.50
2018-10-03T18:34:55.412Z,12.40
2018-10-03T18:37:24.336Z,12.40
2018-10-03T18:39:53.135Z,12.40
2018-10-03T18:42:22.156Z,12.30
2018-10-03T18:44:51.088Z,12.20
2018-10-03T18:47:20.035Z,12.20
2018-10-03T18:49:48.848Z,12.10
2018-10-03T18:52:19.240Z,12.10
2018-10-03T18:54:48.017Z,12.10
2018-10-03T18:57:17.376Z,12.00
2018-10-03T18:59:46.160Z,12.00
2018-10-03T19:02:15.377Z,12.00
2018-10-03T19:04:46.084Z,12.00
2018-10-03T19:07:15.479Z,11.90
2018-10-03T19:09:46.199Z,11.90
2018-10-03T19:12:15.724Z,11.90
2018-10-03T19:14:51.161Z,11.80
2018-10-03T19:17:19.967Z,11.80
2018-10-03T19:19:48.819Z,11.80
2018-10-03T19:22:18.483Z,11.70
2018-10-03T19:24:47.361Z,11.70
2018-10-03T19:27:16.183Z,11.70
2018-10-03T19:29:45.005Z,11.60
2018-10-03T19:32:13.902Z,11.60
2018-10-03T19:34:42.763Z,11.50
2018-10-03T19:37:11.676Z,11.50
2018-10-03T19:39:40.624Z,11.40
2018-10-03T19:42:10.747Z,11.50
2018-10-03T19:44:39.866Z,11.40
2018-10-03T19:47:10.538Z,11.40
2018-10-03T19:49:42.123Z,11.40
2018-10-03T19:52:11.544Z,11.40
2018-10-03T19:54:41.619Z,11.40
2018-10-03T19:57:13.344Z,11.40
2018-10-03T19:59:42.332Z,11.40
2018-10-03T20:02:11.269Z,11.40
2018-10-03T20:04:40.210Z,11.40
2018-10-03T20:07:09.075Z,11.50
2018-10-03T20:09:37.916Z,11.50
2018-10-03T20:12:07.972Z,11.50
2018-10-03T20:14:36.968Z,11.50
2018-10-03T20:17:05.912Z,11.50
2018-10-03T20:19:35.008Z,11.50
2018-10-03T20:22:03.921Z,11.50
2018-10-03T20:24:32.840Z,11.50
2018-10-03T20:27:01.651Z,11.50
2018-10-03T20:29:31.709Z,11.50
2018-10-03T20:32:00.780Z,11.50
2018-10-03T20:34:30.651Z,11.50
2018-10-03T20:36:59.534Z,11.50
2018-10-03T20:39:28.343Z,11.40
2018-10-03T20:41:57.172Z,11.40
2018-10-03T20:44:26.001Z,11.40
2018-10-03T20:46:54.797Z,11.40
2018-10-03T20:49:23.600Z,11.40
2018-10-03T20:51:52.409Z,11.40
2018-10-03T20:54:21.309Z,11.30
2018-10-03T20:56:50.031Z,11.30
2018-10-03T20:59:18.844Z,11.30
2018-10-03T21:01:47.700Z,11.30
2018-10-03T21:04:16.536Z,11.20
2018-10-03T21:06:45.352Z,11.10
2018-10-03T21:09:14.184Z,11.20
2018-10-03T21:11:43.039Z,11.20
2018-10-03T21:14:11.846Z,11.10
2018-10-03T21:16:40.628Z,11.10
2018-10-03T21:19:09.457Z,11.10
2018-10-03T21:21:38.304Z,11.10
2018-10-03T21:24:07.452Z,11.00
2018-10-03T21:26:36.244Z,11.00
2018-10-03T21:29:05.124Z,11.00
2018-10-03T21:31:33.920Z,10.90
2018-10-03T21:34:02.857Z,10.90
2018-10-03T21:36:31.670Z,10.90
2018-10-03T21:39:00.518Z,11.00
2018-10-03T21:41:29.320Z,11.00
2018-10-03T21:43:58.130Z,10.90
2018-10-03T21:46:26.911Z,10.90
2018-10-03T21:48:55.741Z,10.80
2018-10-03T21:51:24.535Z,10.80
2018-10-03T21:53:53.351Z,10.80
2018-10-03T21:56:22.765Z,10.80
2018-10-03T21:58:51.608Z,10.70
2018-10-03T22:01:20.420Z,10.80
2018-10-03T22:03:49.356Z,10.70
2018-10-03T22:06:18.132Z,10.70
2018-10-03T22:08:46.915Z,10.60
2018-10-03T22:11:15.688Z,10.60
2018-10-03T22:13:44.564Z,10.60
2018-10-03T22:16:13.382Z,10.60
2018-10-03T22:18:42.208Z,10.50
2018-10-03T22:21:11.074Z,10.50
2018-10-03T22:23:39.907Z,10.50
2018-10-03T22:26:08.711Z,10.50
2018-10-03T22:28:37.548Z,10.50
2018-10-03T22:31:06.360Z,10.50
2018-10-03T22:33:35.534Z,10.50
2018-10-03T22:36:04.344Z,10.50
2018-10-03T22:38:33.144Z,10.40
2018-10-03T22:41:01.996Z,10.40
2018-10-03T22:43:30.864Z,10.40
2018-10-03T22:45:59.739Z,10.40
2018-10-03T22:48:28.622Z,10.40
2018-10-03T22:50:57.493Z,10.40
2018-10-03T22:53:26.312Z,10.30
2018-10-03T22:55:55.138Z,10.30
2018-10-03T22:58:23.936Z,10.30
2018-10-03T23:00:52.800Z,10.30
2018-10-03T23:03:21.763Z,10.30
2018-10-03T23:05:50.648Z,10.30
2018-10-03T23:08:19.470Z,10.30
2018-10-03T23:10:48.311Z,10.30
2018-10-03T23:13:18.263Z,10.30
2018-10-03T23:15:47.116Z,10.30
2018-10-03T23:18:15.984Z,10.30
2018-10-03T23:20:44.846Z,10.30
2018-10-03T23:23:13.768Z,10.30
2018-10-03T23:25:42.631Z,10.30
2018-10-03T23:28:11.500Z,10.30
2018-10-03T23:30:40.348Z,10.40
2018-10-03T23:33:09.232Z,10.40
2018-10-03T23:35:38.106Z,10.50
2018-10-03T23:38:06.985Z,10.50
2018-10-03T23:40:35.804Z,10.50
2018-10-03T23:43:04.620Z,10.50
2018-10-03T23:45:33.444Z,10.50
2018-10-03T23:48:02.269Z,10.60
2018-10-03T23:50:31.091Z,10.60
2018-10-03T23:52:59.921Z,10.60
2018-10-03T23:55:28.758Z,10.70
2018-10-03T23:57:57.688Z,10.70
